sensor_id;sensor_type;location;lat;lon;timestamp;pressure;altitude;pressure_sealevel;temperature;humidity
84884;BME280;75145;49.188;8.122;2024-03-07T00:00:20;100524.53;;;7.23;81.03
84884;BME280;75145;49.188;8.122;2024-03-07T00:02:48;100523.97;;;7.18;79.78
84884;BME280;75145;49.188;8.122;2024-03-07T00:05:15;100532.53;;;7.21;80.11
84884;BME280;75145;49.188;8.122;2024-03-07T00:07:41;100526.75;;;7.15;80.44
84884;BME280;75145;49.188;8.122;2024-03-07T00:10:06;100524.44;;;7.08;80.00
84884;BME280;75145;49.188;8.122;2024-03-07T00:12:36;100532.44;;;7.07;79.89
84884;BME280;75145;49.188;8.122;2024-03-07T00:15:08;100539.16;;;7.13;80.08
84884;BME280;75145;49.188;8.122;2024-03-07T00:17:34;100539.06;;;7.14;80.12
84884;BME280;75145;49.188;8.122;2024-03-07T00:20:00;100531.56;;;7.06;79.45
84884;BME280;75145;49.188;8.122;2024-03-07T00:22:25;100531.06;;;7.00;79.96
84884;BME280;75145;49.188;8.122;2024-03-07T00:24:53;100538.13;;;6.99;80.38
84884;BME280;75145;49.188;8.122;2024-03-07T00:27:18;100528.44;;;7.00;80.50
84884;BME280;75145;49.188;8.122;2024-03-07T00:29:44;100529.28;;;7.00;79.61
84884;BME280;75145;49.188;8.122;2024-03-07T00:32:17;100527.72;;;6.96;80.09
84884;BME280;75145;49.188;8.122;2024-03-07T00:34:43;100534.97;;;7.08;79.74
84884;BME280;75145;49.188;8.122;2024-03-07T00:37:09;100528.75;;;6.94;79.55
84884;BME280;75145;49.188;8.122;2024-03-07T00:39:34;100534.00;;;6.94;80.65
84884;BME280;75145;49.188;8.122;2024-03-07T00:42:00;100529.59;;;6.94;79.94
84884;BME280;75145;49.188;8.122;2024-03-07T00:44:25;100529.00;;;6.89;80.25
84884;BME280;75145;49.188;8.122;2024-03-07T00:46:51;100532.69;;;6.85;80.43
84884;BME280;75145;49.188;8.122;2024-03-07T00:49:17;100528.38;;;6.84;80.97
84884;BME280;75145;49.188;8.122;2024-03-07T00:51:42;100524.81;;;6.85;80.62
84884;BME280;75145;49.188;8.122;2024-03-07T00:54:09;100528.38;;;6.84;80.85
84884;BME280;75145;49.188;8.122;2024-03-07T00:56:37;100528.50;;;6.98;80.56
84884;BME280;75145;49.188;8.122;2024-03-07T00:59:03;100525.19;;;6.95;80.70
84884;BME280;75145;49.188;8.122;2024-03-07T01:01:29;100525.88;;;6.98;80.30
84884;BME280;75145;49.188;8.122;2024-03-07T01:03:54;100527.25;;;7.05;79.50
84884;BME280;75145;49.188;8.122;2024-03-07T01:06:19;100526.66;;;7.00;79.90
84884;BME280;75145;49.188;8.122;2024-03-07T01:08:45;100527.41;;;7.02;79.81
84884;BME280;75145;49.188;8.122;2024-03-07T01:11:10;100538.78;;;7.03;79.53
84884;BME280;75145;49.188;8.122;2024-03-07T01:13:40;100528.56;;;6.97;80.45
84884;BME280;75145;49.188;8.122;2024-03-07T01:16:06;100519.94;;;6.95;80.01
84884;BME280;75145;49.188;8.122;2024-03-07T01:18:32;100519.94;;;6.95;79.71
84884;BME280;75145;49.188;8.122;2024-03-07T01:21:04;100527.06;;;6.93;79.93
84884;BME280;75145;49.188;8.122;2024-03-07T01:23:30;100514.84;;;6.92;79.93
84884;BME280;75145;49.188;8.122;2024-03-07T01:25:58;100522.47;;;6.96;80.12
84884;BME280;75145;49.188;8.122;2024-03-07T01:28:24;100508.28;;;6.83;79.64
84884;BME280;75145;49.188;8.122;2024-03-07T01:30:51;100516.16;;;6.83;79.84
84884;BME280;75145;49.188;8.122;2024-03-07T01:33:16;100508.69;;;6.75;80.42
84884;BME280;75145;49.188;8.122;2024-03-07T01:35:42;100518.31;;;6.92;79.82
84884;BME280;75145;49.188;8.122;2024-03-07T01:38:07;100519.41;;;6.88;80.08
84884;BME280;75145;49.188;8.122;2024-03-07T01:40:35;100513.78;;;6.78;80.79
84884;BME280;75145;49.188;8.122;2024-03-07T01:43:02;100505.22;;;6.75;80.57
84884;BME280;75145;49.188;8.122;2024-03-07T01:45:27;100508.69;;;6.75;80.31
84884;BME280;75145;49.188;8.122;2024-03-07T01:47:53;100515.56;;;6.78;79.92
84884;BME280;75145;49.188;8.122;2024-03-07T01:50:18;100509.69;;;6.73;81.05
84884;BME280;75145;49.188;8.122;2024-03-07T01:52:44;100512.56;;;6.68;80.32
84884;BME280;75145;49.188;8.122;2024-03-07T01:55:11;100508.50;;;6.63;80.72
84884;BME280;75145;49.188;8.122;2024-03-07T01:57:38;100518.28;;;6.59;81.12
84884;BME280;75145;49.188;8.122;2024-03-07T02:00:04;100507.66;;;6.62;80.92
84884;BME280;75145;49.188;8.122;2024-03-07T02:02:31;100510.88;;;6.67;80.29
84884;BME280;75145;49.188;8.122;2024-03-07T02:04:57;100506.47;;;6.68;80.35
84884;BME280;75145;49.188;8.122;2024-03-07T02:07:23;100509.69;;;6.73;81.31
84884;BME280;75145;49.188;8.122;2024-03-07T02:09:48;100498.19;;;6.58;81.34
84884;BME280;75145;49.188;8.122;2024-03-07T02:12:13;100499.50;;;6.67;80.57
84884;BME280;75145;49.188;8.122;2024-03-07T02:14:39;100504.16;;;6.62;80.84
84884;BME280;75145;49.188;8.122;2024-03-07T02:17:04;100501.28;;;6.66;80.73
84884;BME280;75145;49.188;8.122;2024-03-07T02:19:29;100499.69;;;6.64;80.28
84884;BME280;75145;49.188;8.122;2024-03-07T02:21:57;100501.53;;;6.62;80.82
84884;BME280;75145;49.188;8.122;2024-03-07T02:24:22;100499.28;;;6.54;81.34
84884;BME280;75145;49.188;8.122;2024-03-07T02:26:48;100488.09;;;6.51;80.79
84884;BME280;75145;49.188;8.122;2024-03-07T02:29:14;100493.28;;;6.52;81.17
84884;BME280;75145;49.188;8.122;2024-03-07T02:31:39;100492.59;;;6.48;80.80
84884;BME280;75145;49.188;8.122;2024-03-07T02:34:06;100489.97;;;6.48;81.11
84884;BME280;75145;49.188;8.122;2024-03-07T02:36:33;100495.06;;;6.52;81.36
84884;BME280;75145;49.188;8.122;2024-03-07T02:38:58;100487.66;;;6.42;81.34
84884;BME280;75145;49.188;8.122;2024-03-07T02:41:24;100487.19;;;6.34;81.24
84884;BME280;75145;49.188;8.122;2024-03-07T02:43:50;100485.00;;;6.42;81.23
84884;BME280;75145;49.188;8.122;2024-03-07T02:46:16;100462.94;;;6.29;81.25
84884;BME280;75145;49.188;8.122;2024-03-07T02:48:41;100485.34;;;6.36;81.65
84884;BME280;75145;49.188;8.122;2024-03-07T02:51:07;100475.78;;;6.35;82.01
84884;BME280;75145;49.188;8.122;2024-03-07T02:53:32;100471.03;;;6.42;81.13
84884;BME280;75145;49.188;8.122;2024-03-07T02:55:58;100475.53;;;6.40;81.14
84884;BME280;75145;49.188;8.122;2024-03-07T02:58:24;100477.97;;;6.43;80.96
84884;BME280;75145;49.188;8.122;2024-03-07T03:00:59;100466.50;;;6.28;81.39
84884;BME280;75145;49.188;8.122;2024-03-07T03:03:30;100471.75;;;6.28;81.66
84884;BME280;75145;49.188;8.122;2024-03-07T03:05:59;100476.09;;;6.12;81.65
84884;BME280;75145;49.188;8.122;2024-03-07T03:08:25;100476.94;;;6.12;82.32
84884;BME280;75145;49.188;8.122;2024-03-07T03:10:50;100469.13;;;6.11;82.71
84884;BME280;75145;49.188;8.122;2024-03-07T03:13:18;100464.63;;;5.96;81.83
84884;BME280;75145;49.188;8.122;2024-03-07T03:15:43;100464.63;;;5.96;81.85
84884;BME280;75145;49.188;8.122;2024-03-07T03:18:09;100455.44;;;5.87;82.20
84884;BME280;75145;49.188;8.122;2024-03-07T03:20:35;100461.13;;;5.78;83.00
84884;BME280;75145;49.188;8.122;2024-03-07T03:23:04;100457.50;;;5.80;83.19
84884;BME280;75145;49.188;8.122;2024-03-07T03:25:31;100457.34;;;5.83;83.03
84884;BME280;75145;49.188;8.122;2024-03-07T03:28:00;100453.16;;;5.79;83.44
84884;BME280;75145;49.188;8.122;2024-03-07T03:30:26;100456.28;;;5.87;83.02
84884;BME280;75145;49.188;8.122;2024-03-07T03:32:51;100459.06;;;5.84;83.39
84884;BME280;75145;49.188;8.122;2024-03-07T03:35:17;100452.88;;;5.85;82.88
84884;BME280;75145;49.188;8.122;2024-03-07T03:37:43;100448.31;;;5.89;82.98
84884;BME280;75145;49.188;8.122;2024-03-07T03:40:09;100458.78;;;5.90;82.73
84884;BME280;75145;49.188;8.122;2024-03-07T03:42:39;100447.16;;;5.77;82.85
84884;BME280;75145;49.188;8.122;2024-03-07T03:45:06;100450.31;;;5.84;82.71
84884;BME280;75145;49.188;8.122;2024-03-07T03:47:36;100446.78;;;5.85;81.88
84884;BME280;75145;49.188;8.122;2024-03-07T03:50:03;100442.50;;;5.82;81.83
84884;BME280;75145;49.188;8.122;2024-03-07T03:52:29;100454.09;;;5.78;82.07
84884;BME280;75145;49.188;8.122;2024-03-07T03:54:54;100449.78;;;5.77;82.46
84884;BME280;75145;49.188;8.122;2024-03-07T03:57:19;100450.63;;;5.78;82.24
84884;BME280;75145;49.188;8.122;2024-03-07T03:59:45;100449.47;;;5.83;81.50
84884;BME280;75145;49.188;8.122;2024-03-07T04:02:10;100447.22;;;5.76;80.84
84884;BME280;75145;49.188;8.122;2024-03-07T04:04:39;100441.75;;;5.63;81.55
84884;BME280;75145;49.188;8.122;2024-03-07T04:07:04;100449.38;;;5.68;80.45
84884;BME280;75145;49.188;8.122;2024-03-07T04:09:29;100446.91;;;5.82;80.15
84884;BME280;75145;49.188;8.122;2024-03-07T04:11:55;100446.78;;;5.85;80.85
84884;BME280;75145;49.188;8.122;2024-03-07T04:14:20;100443.44;;;5.81;80.37
84884;BME280;75145;49.188;8.122;2024-03-07T04:16:45;100445.22;;;5.81;79.50
84884;BME280;75145;49.188;8.122;2024-03-07T04:19:11;100436.34;;;5.66;79.00
84884;BME280;75145;49.188;8.122;2024-03-07T04:21:36;100451.91;;;5.69;78.92
84884;BME280;75145;49.188;8.122;2024-03-07T04:24:02;100440.97;;;5.78;78.56
84884;BME280;75145;49.188;8.122;2024-03-07T04:26:28;100435.41;;;5.67;77.58
84884;BME280;75145;49.188;8.122;2024-03-07T04:28:53;100442.28;;;5.70;77.66
84884;BME280;75145;49.188;8.122;2024-03-07T04:31:18;100443.84;;;5.74;79.43
84884;BME280;75145;49.188;8.122;2024-03-07T04:33:44;100438.50;;;5.75;79.34
84884;BME280;75145;49.188;8.122;2024-03-07T04:36:09;100444.53;;;5.77;78.54
84884;BME280;75145;49.188;8.122;2024-03-07T04:38:34;100444.69;;;5.74;79.40
84884;BME280;75145;49.188;8.122;2024-03-07T04:41:00;100444.69;;;5.74;79.85
84884;BME280;75145;49.188;8.122;2024-03-07T04:43:25;100439.44;;;5.74;79.72
84884;BME280;75145;49.188;8.122;2024-03-07T04:45:51;100436.03;;;5.72;79.93
84884;BME280;75145;49.188;8.122;2024-03-07T04:48:16;100440.13;;;5.78;79.90
84884;BME280;75145;49.188;8.122;2024-03-07T04:50:42;100438.59;;;5.74;80.05
84884;BME280;75145;49.188;8.122;2024-03-07T04:53:07;100435.31;;;5.69;79.92
84884;BME280;75145;49.188;8.122;2024-03-07T04:55:32;100438.03;;;5.67;79.34
84884;BME280;75145;49.188;8.122;2024-03-07T04:57:58;100436.00;;;5.55;80.62
84884;BME280;75145;49.188;8.122;2024-03-07T05:00:23;100426.75;;;5.48;81.78
84884;BME280;75145;49.188;8.122;2024-03-07T05:02:49;100435.84;;;5.41;82.68
84884;BME280;75145;49.188;8.122;2024-03-07T05:05:15;100443.50;;;5.26;82.78
84884;BME280;75145;49.188;8.122;2024-03-07T05:07:47;100435.31;;;5.15;82.17
84884;BME280;75145;49.188;8.122;2024-03-07T05:10:14;100437.88;;;4.98;82.12
84884;BME280;75145;49.188;8.122;2024-03-07T05:12:40;100428.22;;;4.80;81.68
84884;BME280;75145;49.188;8.122;2024-03-07T05:15:05;100438.56;;;4.83;82.52
84884;BME280;75145;49.188;8.122;2024-03-07T05:19:51;100435.47;;;4.75;81.94
84884;BME280;75145;49.188;8.122;2024-03-07T05:22:17;100440.09;;;4.68;81.73
84884;BME280;75145;49.188;8.122;2024-03-07T05:24:45;100440.47;;;4.60;80.14
84884;BME280;75145;49.188;8.122;2024-03-07T05:27:10;100443.34;;;4.54;80.45
84884;BME280;75145;49.188;8.122;2024-03-07T05:29:39;100443.63;;;4.48;79.53
84884;BME280;75145;49.188;8.122;2024-03-07T05:32:24;100450.56;;;4.49;79.27
84884;BME280;75145;49.188;8.122;2024-03-07T05:34:51;100432.25;;;4.29;78.75
84884;BME280;75145;49.188;8.122;2024-03-07T05:37:18;100437.63;;;4.26;79.39
84884;BME280;75145;49.188;8.122;2024-03-07T05:39:45;100443.00;;;4.23;79.68
84884;BME280;75145;49.188;8.122;2024-03-07T05:42:10;100441.56;;;4.16;80.23
84884;BME280;75145;49.188;8.122;2024-03-07T05:44:39;100450.34;;;4.14;80.82
84884;BME280;75145;49.188;8.122;2024-03-07T05:47:04;100450.47;;;4.11;80.64
84884;BME280;75145;49.188;8.122;2024-03-07T05:49:30;100430.31;;;3.93;80.67
84884;BME280;75145;49.188;8.122;2024-03-07T05:51:56;100442.56;;;4.13;80.93
84884;BME280;75145;49.188;8.122;2024-03-07T05:54:23;100443.53;;;4.10;80.61
84884;BME280;75145;49.188;8.122;2024-03-07T05:56:48;100442.81;;;4.07;81.73
84884;BME280;75145;49.188;8.122;2024-03-07T05:59:13;100433.47;;;4.01;83.32
84884;BME280;75145;49.188;8.122;2024-03-07T06:01:39;100440.78;;;3.93;85.16
84884;BME280;75145;49.188;8.122;2024-03-07T06:04:06;100441.19;;;3.84;86.69
84884;BME280;75145;49.188;8.122;2024-03-07T06:06:33;100452.03;;;3.95;86.54
84884;BME280;75145;49.188;8.122;2024-03-07T06:09:01;100451.00;;;3.99;86.48
84884;BME280;75145;49.188;8.122;2024-03-07T06:11:27;100444.19;;;3.95;86.76
84884;BME280;75145;49.188;8.122;2024-03-07T06:13:53;100442.38;;;3.97;86.36
84884;BME280;75145;49.188;8.122;2024-03-07T06:16:18;100439.81;;;3.96;86.38
84884;BME280;75145;49.188;8.122;2024-03-07T06:18:44;100439.41;;;4.05;85.44
84884;BME280;75145;49.188;8.122;2024-03-07T06:21:12;100443.72;;;4.06;85.14
84884;BME280;75145;49.188;8.122;2024-03-07T06:23:38;100444.97;;;4.18;84.30
84884;BME280;75145;49.188;8.122;2024-03-07T06:26:04;100445.69;;;4.21;83.88
84884;BME280;75145;49.188;8.122;2024-03-07T06:28:37;100445.47;;;4.46;82.43
84884;BME280;75145;49.188;8.122;2024-03-07T06:31:03;100449.25;;;4.59;81.69
84884;BME280;75145;49.188;8.122;2024-03-07T06:33:32;100453.16;;;4.88;80.36
84884;BME280;75145;49.188;8.122;2024-03-07T06:35:58;100446.22;;;5.06;79.32
84884;BME280;75145;49.188;8.122;2024-03-07T06:38:23;100447.13;;;6.64;74.68
84884;BME280;75145;49.188;8.122;2024-03-07T06:40:49;100440.38;;;6.25;74.11
84884;BME280;75145;49.188;8.122;2024-03-07T06:43:14;100440.59;;;6.38;73.76
84884;BME280;75145;49.188;8.122;2024-03-07T06:45:40;100451.25;;;6.35;73.41
84884;BME280;75145;49.188;8.122;2024-03-07T06:48:07;100449.75;;;6.46;72.66
84884;BME280;75145;49.188;8.122;2024-03-07T06:50:36;100446.00;;;6.35;72.67
84884;BME280;75145;49.188;8.122;2024-03-07T06:53:06;100442.28;;;6.72;72.30
84884;BME280;75145;49.188;8.122;2024-03-07T06:55:32;100440.81;;;6.99;70.07
84884;BME280;75145;49.188;8.122;2024-03-07T06:57:59;100443.25;;;7.34;69.49
84884;BME280;75145;49.188;8.122;2024-03-07T07:00:25;100449.44;;;7.33;68.80
84884;BME280;75145;49.188;8.122;2024-03-07T07:02:51;100443.50;;;7.91;67.19
84884;BME280;75145;49.188;8.122;2024-03-07T07:05:19;100439.75;;;7.95;66.34
84884;BME280;75145;49.188;8.122;2024-03-07T07:07:45;100438.03;;;7.94;66.12
84884;BME280;75145;49.188;8.122;2024-03-07T07:10:11;100440.25;;;8.02;66.17
84884;BME280;75145;49.188;8.122;2024-03-07T07:12:50;100439.63;;;8.26;65.13
84884;BME280;75145;49.188;8.122;2024-03-07T07:15:18;100440.44;;;8.43;63.73
84884;BME280;75145;49.188;8.122;2024-03-07T07:17:44;100445.91;;;8.68;63.37
84884;BME280;75145;49.188;8.122;2024-03-07T07:20:12;100446.00;;;8.81;62.21
84884;BME280;75145;49.188;8.122;2024-03-07T07:22:40;100443.84;;;9.56;60.29
84884;BME280;75145;49.188;8.122;2024-03-07T07:25:06;100437.69;;;9.82;59.40
84884;BME280;75145;49.188;8.122;2024-03-07T07:27:40;100435.03;;;9.69;58.51
84884;BME280;75145;49.188;8.122;2024-03-07T07:30:06;100427.59;;;9.62;58.12
84884;BME280;75145;49.188;8.122;2024-03-07T07:32:32;100430.78;;;9.67;58.03
84884;BME280;75145;49.188;8.122;2024-03-07T07:34:57;100429.41;;;9.74;57.27
84884;BME280;75145;49.188;8.122;2024-03-07T07:37:22;100431.50;;;10.09;57.13
84884;BME280;75145;49.188;8.122;2024-03-07T07:39:48;100426.44;;;10.06;55.89
84884;BME280;75145;49.188;8.122;2024-03-07T07:42:13;100423.75;;;9.26;56.84
84884;BME280;75145;49.188;8.122;2024-03-07T07:44:40;100428.38;;;9.50;57.76
84884;BME280;75145;49.188;8.122;2024-03-07T07:47:05;100433.41;;;10.07;55.50
84884;BME280;75145;49.188;8.122;2024-03-07T07:49:31;100420.22;;;10.19;55.45
84884;BME280;75145;49.188;8.122;2024-03-07T07:51:56;100426.91;;;10.50;54.62
84884;BME280;75145;49.188;8.122;2024-03-07T07:54:21;100427.84;;;10.49;54.37
84884;BME280;75145;49.188;8.122;2024-03-07T07:56:47;100428.19;;;10.70;53.29
84884;BME280;75145;49.188;8.122;2024-03-07T07:59:16;100419.50;;;10.68;53.44
84884;BME280;75145;49.188;8.122;2024-03-07T08:01:42;100409.72;;;10.94;53.02
84884;BME280;75145;49.188;8.122;2024-03-07T08:04:07;100420.38;;;11.05;52.46
84884;BME280;75145;49.188;8.122;2024-03-07T08:06:35;100420.56;;;11.39;50.96
84884;BME280;75145;49.188;8.122;2024-03-07T08:09:00;100420.69;;;11.61;50.25
84884;BME280;75145;49.188;8.122;2024-03-07T08:11:25;100416.00;;;11.41;50.84
84884;BME280;75145;49.188;8.122;2024-03-07T08:13:51;100408.69;;;11.44;50.00
84884;BME280;75145;49.188;8.122;2024-03-07T08:16:16;100412.25;;;11.56;50.19
84884;BME280;75145;49.188;8.122;2024-03-07T08:18:42;100400.56;;;11.35;49.81
84884;BME280;75145;49.188;8.122;2024-03-07T08:21:07;100410.53;;;11.55;49.56
84884;BME280;75145;49.188;8.122;2024-03-07T08:23:36;100404.69;;;11.87;48.90
84884;BME280;75145;49.188;8.122;2024-03-07T08:26:01;100399.94;;;12.25;47.97
84884;BME280;75145;49.188;8.122;2024-03-07T08:28:27;100397.06;;;12.62;46.26
84884;BME280;75145;49.188;8.122;2024-03-07T08:30:52;100391.53;;;12.54;45.99
84884;BME280;75145;49.188;8.122;2024-03-07T08:33:17;100391.22;;;13.13;45.64
84884;BME280;75145;49.188;8.122;2024-03-07T08:35:46;100385.69;;;12.93;44.94
84884;BME280;75145;49.188;8.122;2024-03-07T08:38:12;100384.88;;;13.47;44.60
84884;BME280;75145;49.188;8.122;2024-03-07T08:40:37;100382.53;;;13.86;43.52
84884;BME280;75145;49.188;8.122;2024-03-07T08:43:03;100382.44;;;12.90;44.06
84884;BME280;75145;49.188;8.122;2024-03-07T08:45:29;100374.09;;;12.94;44.82
84884;BME280;75145;49.188;8.122;2024-03-07T08:47:56;100370.38;;;12.97;45.48
84884;BME280;75145;49.188;8.122;2024-03-07T08:50:23;100365.22;;;12.84;43.54
84884;BME280;75145;49.188;8.122;2024-03-07T08:52:49;100367.78;;;13.18;43.99
84884;BME280;75145;49.188;8.122;2024-03-07T08:55:16;100364.94;;;12.99;44.82
84884;BME280;75145;49.188;8.122;2024-03-07T08:57:43;100370.03;;;12.90;44.50
84884;BME280;75145;49.188;8.122;2024-03-07T09:00:11;100363.25;;;11.14;47.45
84884;BME280;75145;49.188;8.122;2024-03-07T09:02:41;100359.97;;;10.86;48.83
84884;BME280;75145;49.188;8.122;2024-03-07T09:05:07;100363.88;;;10.44;48.41
84884;BME280;75145;49.188;8.122;2024-03-07T09:07:35;100352.47;;;11.04;47.73
84884;BME280;75145;49.188;8.122;2024-03-07T09:10:01;100355.78;;;11.32;47.07
84884;BME280;75145;49.188;8.122;2024-03-07T09:12:26;100357.91;;;11.27;45.73
84884;BME280;75145;49.188;8.122;2024-03-07T09:14:52;100350.91;;;11.26;45.88
84884;BME280;75145;49.188;8.122;2024-03-07T09:17:18;100358.34;;;9.96;48.43
84884;BME280;75145;49.188;8.122;2024-03-07T09:19:43;100360.25;;;9.94;48.28
84884;BME280;75145;49.188;8.122;2024-03-07T09:22:08;100362.16;;;10.05;48.20
84884;BME280;75145;49.188;8.122;2024-03-07T09:24:34;100353.81;;;9.98;48.25
84884;BME280;75145;49.188;8.122;2024-03-07T09:27:00;100357.06;;;10.02;48.64
84884;BME280;75145;49.188;8.122;2024-03-07T09:29:26;100346.50;;;10.02;48.36
84884;BME280;75145;49.188;8.122;2024-03-07T09:31:53;100352.88;;;10.25;48.45
84884;BME280;75145;49.188;8.122;2024-03-07T09:34:19;100349.97;;;10.02;48.29
84884;BME280;75145;49.188;8.122;2024-03-07T09:36:46;100353.69;;;9.87;48.89
84884;BME280;75145;49.188;8.122;2024-03-07T09:39:11;100351.47;;;10.19;48.69
84884;BME280;75145;49.188;8.122;2024-03-07T09:41:40;100351.19;;;10.24;48.95
84884;BME280;75145;49.188;8.122;2024-03-07T09:44:09;100345.28;;;10.33;49.04
84884;BME280;75145;49.188;8.122;2024-03-07T09:46:37;100343.94;;;9.75;48.93
84884;BME280;75145;49.188;8.122;2024-03-07T09:49:03;100352.41;;;9.80;48.18
84884;BME280;75145;49.188;8.122;2024-03-07T09:51:31;100332.69;;;9.46;48.46
84884;BME280;75145;49.188;8.122;2024-03-07T09:53:57;100346.09;;;9.03;50.67
84884;BME280;75145;49.188;8.122;2024-03-07T09:56:27;100342.88;;;8.57;49.81
84884;BME280;75145;49.188;8.122;2024-03-07T09:58:57;100341.13;;;9.38;49.64
84884;BME280;75145;49.188;8.122;2024-03-07T10:01:26;100340.44;;;9.22;47.32
84884;BME280;75145;49.188;8.122;2024-03-07T10:03:59;100332.16;;;9.14;49.77
84884;BME280;75145;49.188;8.122;2024-03-07T10:06:37;100348.66;;;8.76;49.19
84884;BME280;75145;49.188;8.122;2024-03-07T10:09:04;100341.28;;;8.54;50.43
84884;BME280;75145;49.188;8.122;2024-03-07T10:11:29;100347.94;;;8.74;50.72
84884;BME280;75145;49.188;8.122;2024-03-07T10:13:55;100350.63;;;8.87;50.39
84884;BME280;75145;49.188;8.122;2024-03-07T10:16:20;100343.16;;;10.25;49.10
84884;BME280;75145;49.188;8.122;2024-03-07T10:18:46;100338.53;;;11.61;46.02
84884;BME280;75145;49.188;8.122;2024-03-07T10:21:14;100339.19;;;11.17;44.21
84884;BME280;75145;49.188;8.122;2024-03-07T10:23:43;100350.69;;;11.29;44.15
84884;BME280;75145;49.188;8.122;2024-03-07T10:26:10;100342.06;;;11.38;43.50
84884;BME280;75145;49.188;8.122;2024-03-07T10:28:37;100330.06;;;11.80;42.22
84884;BME280;75145;49.188;8.122;2024-03-07T10:31:03;100328.28;;;12.81;41.82
84884;BME280;75145;49.188;8.122;2024-03-07T10:33:29;100327.09;;;13.61;39.38
84884;BME280;75145;49.188;8.122;2024-03-07T10:36:00;100319.94;;;13.82;38.76
84884;BME280;75145;49.188;8.122;2024-03-07T10:38:26;100321.56;;;13.52;39.29
84884;BME280;75145;49.188;8.122;2024-03-07T10:40:55;100329.84;;;14.52;38.33
84884;BME280;75145;49.188;8.122;2024-03-07T10:43:21;100322.00;;;14.60;37.96
84884;BME280;75145;49.188;8.122;2024-03-07T10:45:50;100320.69;;;14.14;36.52
84884;BME280;75145;49.188;8.122;2024-03-07T10:48:18;100316.72;;;13.25;38.65
84884;BME280;75145;49.188;8.122;2024-03-07T10:51:14;100311.50;;;13.77;38.53
84884;BME280;75145;49.188;8.122;2024-03-07T10:53:59;100319.13;;;12.85;40.02
84884;BME280;75145;49.188;8.122;2024-03-07T10:56:47;100315.84;;;11.81;43.39
84884;BME280;75145;49.188;8.122;2024-03-07T10:59:20;100301.69;;;12.27;44.15
84884;BME280;75145;49.188;8.122;2024-03-07T11:01:57;100311.91;;;11.87;42.84
84884;BME280;75145;49.188;8.122;2024-03-07T11:04:24;100308.91;;;11.56;44.26
84884;BME280;75145;49.188;8.122;2024-03-07T11:06:50;100297.97;;;11.26;44.88
84884;BME280;75145;49.188;8.122;2024-03-07T11:09:15;100286.28;;;11.63;45.06
84884;BME280;75145;49.188;8.122;2024-03-07T11:11:48;100304.06;;;11.50;44.80
84884;BME280;75145;49.188;8.122;2024-03-07T11:14:14;100288.28;;;12.28;44.79
84884;BME280;75145;49.188;8.122;2024-03-07T11:16:42;100282.94;;;13.05;43.49
84884;BME280;75145;49.188;8.122;2024-03-07T11:21:50;100285.88;;;12.14;43.61
84884;BME280;75145;49.188;8.122;2024-03-07T11:24:31;100284.97;;;11.69;45.75
84884;BME280;75145;49.188;8.122;2024-03-07T11:27:03;100284.66;;;11.85;45.72
84884;BME280;75145;49.188;8.122;2024-03-07T11:29:50;100282.25;;;11.82;44.64
84884;BME280;75145;49.188;8.122;2024-03-07T11:32:19;100275.38;;;11.33;45.63
84884;BME280;75145;49.188;8.122;2024-03-07T11:34:46;100264.97;;;11.18;46.19
84884;BME280;75145;49.188;8.122;2024-03-07T11:37:38;100269.31;;;10.35;48.14
84884;BME280;75145;49.188;8.122;2024-03-07T11:40:19;100258.88;;;10.08;49.85
84884;BME280;75145;49.188;8.122;2024-03-07T11:43:00;100267.25;;;10.51;50.29
84884;BME280;75145;49.188;8.122;2024-03-07T11:45:30;100264.47;;;10.66;48.97
84884;BME280;75145;49.188;8.122;2024-03-07T11:47:59;100252.13;;;10.04;50.23
84884;BME280;75145;49.188;8.122;2024-03-07T11:50:28;100262.94;;;10.98;48.85
84884;BME280;75145;49.188;8.122;2024-03-07T11:52:55;100234.66;;;12.25;45.27
84884;BME280;75145;49.188;8.122;2024-03-07T11:55:23;100239.00;;;12.69;44.36
84884;BME280;75145;49.188;8.122;2024-03-07T11:57:49;100250.16;;;12.52;44.21
84884;BME280;75145;49.188;8.122;2024-03-07T12:00:18;100248.72;;;12.59;43.38
84884;BME280;75145;49.188;8.122;2024-03-07T12:02:44;100228.88;;;12.74;44.09
84884;BME280;75145;49.188;8.122;2024-03-07T12:05:10;100244.41;;;11.79;44.92
84884;BME280;75145;49.188;8.122;2024-03-07T12:07:35;100241.22;;;11.52;46.11
84884;BME280;75145;49.188;8.122;2024-03-07T12:10:04;100238.16;;;11.81;45.79
84884;BME280;75145;49.188;8.122;2024-03-07T12:12:30;100235.69;;;11.66;46.58
84884;BME280;75145;49.188;8.122;2024-03-07T12:14:56;100233.72;;;11.35;46.38
84884;BME280;75145;49.188;8.122;2024-03-07T12:17:22;100229.41;;;11.45;47.68
84884;BME280;75145;49.188;8.122;2024-03-07T12:19:48;100228.00;;;10.82;48.67
84884;BME280;75145;49.188;8.122;2024-03-07T12:22:18;100222.75;;;10.93;48.01
84884;BME280;75145;49.188;8.122;2024-03-07T12:24:58;100213.16;;;11.03;48.79
84884;BME280;75145;49.188;8.122;2024-03-07T12:27:24;100226.56;;;10.89;48.91
84884;BME280;75145;49.188;8.122;2024-03-07T12:29:50;100210.69;;;10.89;48.82
84884;BME280;75145;49.188;8.122;2024-03-07T12:32:17;100214.78;;;10.82;49.12
84884;BME280;75145;49.188;8.122;2024-03-07T12:34:43;100217.47;;;10.93;48.59
84884;BME280;75145;49.188;8.122;2024-03-07T12:37:13;100217.41;;;10.82;48.63
84884;BME280;75145;49.188;8.122;2024-03-07T12:39:42;100220.72;;;10.49;49.68
84884;BME280;75145;49.188;8.122;2024-03-07T12:42:12;100211.94;;;10.48;50.33
84884;BME280;75145;49.188;8.122;2024-03-07T12:44:46;100205.91;;;10.22;50.48
84884;BME280;75145;49.188;8.122;2024-03-07T12:47:12;100202.59;;;9.69;51.25
84884;BME280;75145;49.188;8.122;2024-03-07T12:49:39;100214.41;;;9.38;52.63
84884;BME280;75145;49.188;8.122;2024-03-07T12:52:05;100205.75;;;9.36;53.77
84884;BME280;75145;49.188;8.122;2024-03-07T12:54:33;100201.81;;;9.93;52.89
84884;BME280;75145;49.188;8.122;2024-03-07T12:56:58;100208.53;;;10.10;52.19
84884;BME280;75145;49.188;8.122;2024-03-07T12:59:24;100200.31;;;10.01;52.27
84884;BME280;75145;49.188;8.122;2024-03-07T13:01:49;100202.25;;;9.87;52.70